aviador You're here:

UKDE Decoded Metar

MOKRAYA in UKRAINE
Report Time2018-07-18 10:30:00
UTC Time2018-07-18 11:00:36
Flight Rules mvfr MVFR
Wind230° at 10 kt
W.Decomp.*RWY 20: 9.0 kt HW 4.4 kt RCW
W.Rank230° ranks 29
Current wind is above 230° avg. (8.1)
Visibility9999 m
Phenomena:N/A
Clouds:Broken 027 Hf
Expected CloudBase > 5,200 ft AGL from Temp-Dew spread
Ceiling2,700 ft
Temp29°C (ISA +15)
Dew Point16°C (45% RH)
Heat Index29.1°C
AAT27.3°C
QNH1000 hPa
Density Alt2,743 ft
Elevation371 ft
Report Wrong Elevation
Raw Report
UKDE 181030Z 23005MPS 150V290 9999 BKN027 29/16 Q1000 R20L/CLRD70
NOSIG=

Extra information for UKDE:More info

Metar Taf Metar & Taf Last 4 Metars F.Rules Stats Wind Profile Meteogram Temp Stats Airport Information Weather charts Add Link Nearby VenuesMetar ALERT Operation Metar Decoded Social comments